sensor_id;sensor_type;location;lat;lon;timestamp;pressure;altitude;pressure_sealevel;temperature;humidity
70127;BME280;57491;42.694;23.314;2022-10-31T00:00:08;95574.03;;;16.04;45.93
70127;BME280;57491;42.694;23.314;2022-10-31T00:02:37;95565.34;;;16.03;45.03
70127;BME280;57491;42.694;23.314;2022-10-31T00:05:07;95558.72;;;16.01;45.54
70127;BME280;57491;42.694;23.314;2022-10-31T00:07:34;95556.50;;;15.98;45.96
70127;BME280;57491;42.694;23.314;2022-10-31T00:10:01;95570.63;;;15.97;45.49
70127;BME280;57491;42.694;23.314;2022-10-31T00:12:28;95557.31;;;15.98;46.84
70127;BME280;57491;42.694;23.314;2022-10-31T00:14:55;95551.41;;;15.90;45.73
70127;BME280;57491;42.694;23.314;2022-10-31T00:17:22;95568.56;;;15.99;46.16
70127;BME280;57491;42.694;23.314;2022-10-31T00:19:49;95570.19;;;16.00;45.69
70127;BME280;57491;42.694;23.314;2022-10-31T00:22:17;95569.63;;;15.98;47.06
70127;BME280;57491;42.694;23.314;2022-10-31T00:24:45;95565.16;;;16.05;48.00
70127;BME280;57491;42.694;23.314;2022-10-31T00:27:12;95560.13;;;16.03;45.78
70127;BME280;57491;42.694;23.314;2022-10-31T00:29:39;95559.53;;;16.01;48.28
70127;BME280;57491;42.694;23.314;2022-10-31T00:32:06;95558.72;;;16.01;48.07
70127;BME280;57491;42.694;23.314;2022-10-31T00:34:33;95556.69;;;16.03;47.74
70127;BME280;57491;42.694;23.314;2022-10-31T00:37:00;95563.97;;;16.01;48.61
70127;BME280;57491;42.694;23.314;2022-10-31T00:39:28;95562.97;;;16.02;47.89
70127;BME280;57491;42.694;23.314;2022-10-31T00:41:55;95542.19;;;15.94;46.54
70127;BME280;57491;42.694;23.314;2022-10-31T00:44:22;95558.91;;;15.93;46.42
70127;BME280;57491;42.694;23.314;2022-10-31T00:46:49;95548.63;;;15.98;48.11
70127;BME280;57491;42.694;23.314;2022-10-31T00:49:18;95551.22;;;15.91;47.86
70127;BME280;57491;42.694;23.314;2022-10-31T00:51:45;95546.81;;;15.92;47.70
70127;BME280;57491;42.694;23.314;2022-10-31T00:54:12;95562.31;;;15.87;47.36
70127;BME280;57491;42.694;23.314;2022-10-31T00:56:40;95559.91;;;15.92;47.99
70127;BME280;57491;42.694;23.314;2022-10-31T00:59:07;95554.03;;;15.90;47.35
70127;BME280;57491;42.694;23.314;2022-10-31T01:01:34;95559.28;;;15.90;47.57
70127;BME280;57491;42.694;23.314;2022-10-31T01:04:01;95561.53;;;15.93;48.89
70127;BME280;57491;42.694;23.314;2022-10-31T01:06:28;95559.09;;;15.91;48.34
70127;BME280;57491;42.694;23.314;2022-10-31T01:08:55;95536.28;;;15.72;48.06
70127;BME280;57491;42.694;23.314;2022-10-31T01:11:23;95562.72;;;15.90;48.51
70127;BME280;57491;42.694;23.314;2022-10-31T01:13:53;95563.94;;;15.88;48.18
70127;BME280;57491;42.694;23.314;2022-10-31T01:16:23;95521.91;;;15.48;47.84
70127;BME280;57491;42.694;23.314;2022-10-31T01:18:51;95568.97;;;15.83;48.55
70127;BME280;57491;42.694;23.314;2022-10-31T01:21:19;95575.22;;;15.82;48.29
70127;BME280;57491;42.694;23.314;2022-10-31T01:23:46;95575.22;;;15.82;49.24
70127;BME280;57491;42.694;23.314;2022-10-31T01:26:15;95541.09;;;15.55;48.68
70127;BME280;57491;42.694;23.314;2022-10-31T01:28:47;95575.63;;;15.79;48.00
70127;BME280;57491;42.694;23.314;2022-10-31T01:31:17;95566.75;;;15.80;47.90
70127;BME280;57491;42.694;23.314;2022-10-31T01:33:45;95575.22;;;15.82;49.65
70127;BME280;57491;42.694;23.314;2022-10-31T01:36:14;95577.47;;;15.98;49.97
70127;BME280;57491;42.694;23.314;2022-10-31T01:38:42;95556.28;;;15.93;48.27
70127;BME280;57491;42.694;23.314;2022-10-31T01:41:10;95566.78;;;16.06;48.10
70127;BME280;57491;42.694;23.314;2022-10-31T01:43:46;95553.06;;;15.97;48.72
70127;BME280;57491;42.694;23.314;2022-10-31T01:46:18;95578.47;;;16.17;48.93
70127;BME280;57491;42.694;23.314;2022-10-31T01:48:46;95577.69;;;16.23;48.41
70127;BME280;57491;42.694;23.314;2022-10-31T01:51:15;95573.06;;;16.25;47.76
70127;BME280;57491;42.694;23.314;2022-10-31T01:53:44;95582.53;;;16.32;46.85
70127;BME280;57491;42.694;23.314;2022-10-31T01:56:14;95581.34;;;16.28;48.51
70127;BME280;57491;42.694;23.314;2022-10-31T01:58:44;95565.19;;;16.18;47.98
70127;BME280;57491;42.694;23.314;2022-10-31T02:01:14;95576.88;;;16.22;48.09
70127;BME280;57491;42.694;23.314;2022-10-31T02:03:46;95571.44;;;16.30;48.39
70127;BME280;57491;42.694;23.314;2022-10-31T02:06:21;95575.88;;;16.36;47.82
70127;BME280;57491;42.694;23.314;2022-10-31T02:08:54;95568.03;;;16.30;47.76
70127;BME280;57491;42.694;23.314;2022-10-31T02:11:22;95552.66;;;16.27;47.60
70127;BME280;57491;42.694;23.314;2022-10-31T02:13:49;95564.78;;;16.34;48.31
70127;BME280;57491;42.694;23.314;2022-10-31T02:16:17;95572.66;;;16.34;48.57
70127;BME280;57491;42.694;23.314;2022-10-31T02:18:46;95558.72;;;16.34;47.72
70127;BME280;57491;42.694;23.314;2022-10-31T02:21:17;95573.25;;;16.36;48.33
70127;BME280;57491;42.694;23.314;2022-10-31T02:26:56;95586.97;;;16.32;49.10
70127;BME280;57491;42.694;23.314;2022-10-31T02:30:00;95591.81;;;16.28;47.85
70127;BME280;57491;42.694;23.314;2022-10-31T02:32:41;95588.59;;;16.20;49.04
70127;BME280;57491;42.694;23.314;2022-10-31T02:35:14;95591.41;;;16.18;48.41
70127;BME280;57491;42.694;23.314;2022-10-31T02:37:51;95594.63;;;16.07;48.60
70127;BME280;57491;42.694;23.314;2022-10-31T02:40:25;95588.38;;;16.01;49.18
70127;BME280;57491;42.694;23.314;2022-10-31T02:43:00;95596.84;;;16.03;48.77
70127;BME280;57491;42.694;23.314;2022-10-31T02:45:32;95592.19;;;15.99;48.80
70127;BME280;57491;42.694;23.314;2022-10-31T02:48:08;95581.69;;;15.86;48.48
70127;BME280;57491;42.694;23.314;2022-10-31T02:50:39;95584.50;;;15.78;48.73
70127;BME280;57491;42.694;23.314;2022-10-31T02:53:08;95586.31;;;15.71;48.97
70127;BME280;57491;42.694;23.314;2022-10-31T02:55:51;95611.31;;;15.86;48.89
70127;BME280;57491;42.694;23.314;2022-10-31T02:58:26;95605.28;;;15.79;49.17
70127;BME280;57491;42.694;23.314;2022-10-31T03:07:00;95615.13;;;15.71;49.49
70127;BME280;57491;42.694;23.314;2022-10-31T03:09:34;95617.13;;;15.69;49.36
70127;BME280;57491;42.694;23.314;2022-10-31T03:12:07;95624.19;;;15.68;50.43
70127;BME280;57491;42.694;23.314;2022-10-31T03:14:40;95607.81;;;15.59;50.75
70127;BME280;57491;42.694;23.314;2022-10-31T03:17:12;95593.09;;;15.58;50.79
70127;BME280;57491;42.694;23.314;2022-10-31T03:19:45;95609.88;;;15.71;50.30
70127;BME280;57491;42.694;23.314;2022-10-31T03:22:17;95609.25;;;15.69;50.21
70127;BME280;57491;42.694;23.314;2022-10-31T03:24:47;95610.84;;;15.56;50.28
70127;BME280;57491;42.694;23.314;2022-10-31T03:27:18;95618.31;;;15.59;50.49
70127;BME280;57491;42.694;23.314;2022-10-31T03:29:49;95620.13;;;15.59;51.11
70127;BME280;57491;42.694;23.314;2022-10-31T03:32:20;95622.50;;;15.54;50.88
70127;BME280;57491;42.694;23.314;2022-10-31T03:34:51;95620.44;;;15.49;51.16
70127;BME280;57491;42.694;23.314;2022-10-31T03:37:23;95619.72;;;15.55;51.22
70127;BME280;57491;42.694;23.314;2022-10-31T03:39:53;95628.31;;;15.49;51.60
70127;BME280;57491;42.694;23.314;2022-10-31T03:42:23;95626.25;;;15.38;51.04
70127;BME280;57491;42.694;23.314;2022-10-31T03:44:58;95637.34;;;15.40;51.29
70127;BME280;57491;42.694;23.314;2022-10-31T03:47:27;95641.00;;;15.39;51.98
70127;BME280;57491;42.694;23.314;2022-10-31T03:49:56;95639.13;;;15.33;51.41
70127;BME280;57491;42.694;23.314;2022-10-31T03:52:26;95642.91;;;15.24;52.62
70127;BME280;57491;42.694;23.314;2022-10-31T03:54:58;95646.16;;;15.26;51.46
70127;BME280;57491;42.694;23.314;2022-10-31T03:57:29;95640.13;;;15.26;52.71
70127;BME280;57491;42.694;23.314;2022-10-31T04:00:03;95620.03;;;15.05;52.18
70127;BME280;57491;42.694;23.314;2022-10-31T04:02:32;95647.31;;;15.17;52.51
70127;BME280;57491;42.694;23.314;2022-10-31T04:05:01;95644.25;;;15.13;52.55
70127;BME280;57491;42.694;23.314;2022-10-31T04:07:32;95642.59;;;15.06;52.83
70127;BME280;57491;42.694;23.314;2022-10-31T04:10:05;95648.84;;;15.05;53.50
70127;BME280;57491;42.694;23.314;2022-10-31T04:12:35;95647.81;;;14.99;53.65
70127;BME280;57491;42.694;23.314;2022-10-31T04:15:04;95656.03;;;14.96;53.64
70127;BME280;57491;42.694;23.314;2022-10-31T04:17:34;95655.81;;;14.91;53.46
70127;BME280;57491;42.694;23.314;2022-10-31T04:20:06;95629.75;;;14.77;53.51
70127;BME280;57491;42.694;23.314;2022-10-31T04:22:34;95654.63;;;14.94;52.96
70127;BME280;57491;42.694;23.314;2022-10-31T04:25:01;95657.25;;;14.94;52.65
70127;BME280;57491;42.694;23.314;2022-10-31T04:27:28;95641.06;;;14.84;53.72
70127;BME280;57491;42.694;23.314;2022-10-31T04:29:55;95650.19;;;14.94;53.90
70127;BME280;57491;42.694;23.314;2022-10-31T04:32:22;95639.50;;;14.89;54.53
70127;BME280;57491;42.694;23.314;2022-10-31T04:34:49;95623.31;;;14.79;54.29
70127;BME280;57491;42.694;23.314;2022-10-31T04:37:17;95659.31;;;15.05;53.78
70127;BME280;57491;42.694;23.314;2022-10-31T04:39:44;95654.28;;;15.03;53.13
70127;BME280;57491;42.694;23.314;2022-10-31T04:42:11;95648.00;;;14.98;53.77
70127;BME280;57491;42.694;23.314;2022-10-31T04:44:38;95618.47;;;14.76;53.98
70127;BME280;57491;42.694;23.314;2022-10-31T04:47:06;95647.38;;;14.96;54.08
70127;BME280;57491;42.694;23.314;2022-10-31T04:49:33;95658.91;;;15.01;53.50
70127;BME280;57491;42.694;23.314;2022-10-31T04:52:00;95658.72;;;15.03;53.80
70127;BME280;57491;42.694;23.314;2022-10-31T04:54:28;95669.78;;;15.05;53.99
70127;BME280;57491;42.694;23.314;2022-10-31T04:56:55;95670.84;;;15.10;53.41
70127;BME280;57491;42.694;23.314;2022-10-31T04:59:22;95673.63;;;15.09;54.28
70127;BME280;57491;42.694;23.314;2022-10-31T05:01:49;95680.09;;;15.06;53.49
70127;BME280;57491;42.694;23.314;2022-10-31T05:04:17;95674.84;;;15.06;54.61
70127;BME280;57491;42.694;23.314;2022-10-31T05:06:44;95681.88;;;15.06;54.59
70127;BME280;57491;42.694;23.314;2022-10-31T05:09:11;95677.03;;;15.03;54.26
70127;BME280;57491;42.694;23.314;2022-10-31T05:11:39;95687.28;;;14.98;54.63
70127;BME280;57491;42.694;23.314;2022-10-31T05:14:06;95686.06;;;15.00;54.53
70127;BME280;57491;42.694;23.314;2022-10-31T05:16:33;95693.13;;;15.00;54.52
70127;BME280;57491;42.694;23.314;2022-10-31T05:19:00;95688.34;;;15.03;54.75
70127;BME280;57491;42.694;23.314;2022-10-31T05:21:27;95694.38;;;15.04;53.55
70127;BME280;57491;42.694;23.314;2022-10-31T05:23:54;95693.00;;;15.08;53.17
70127;BME280;57491;42.694;23.314;2022-10-31T05:26:21;95698.22;;;15.08;54.33
70127;BME280;57491;42.694;23.314;2022-10-31T05:28:50;95687.88;;;15.00;53.95
70127;BME280;57491;42.694;23.314;2022-10-31T05:31:17;95711.13;;;15.09;54.11
70127;BME280;57491;42.694;23.314;2022-10-31T05:33:44;95707.84;;;15.01;54.87
70127;BME280;57491;42.694;23.314;2022-10-31T05:36:11;95705.44;;;14.99;55.18
70127;BME280;57491;42.694;23.314;2022-10-31T05:38:38;95702.13;;;14.91;54.41
70127;BME280;57491;42.694;23.314;2022-10-31T05:41:05;95713.22;;;14.93;55.22
70127;BME280;57491;42.694;23.314;2022-10-31T05:43:32;95702.50;;;14.88;53.30
70127;BME280;57491;42.694;23.314;2022-10-31T05:46:01;95715.84;;;14.93;55.19
70127;BME280;57491;42.694;23.314;2022-10-31T05:48:28;95717.03;;;14.90;53.95
70127;BME280;57491;42.694;23.314;2022-10-31T05:50:55;95714.06;;;15.00;54.96
70127;BME280;57491;42.694;23.314;2022-10-31T05:53:22;95709.88;;;15.05;54.69
70127;BME280;57491;42.694;23.314;2022-10-31T05:55:49;95716.59;;;15.14;53.76
70127;BME280;57491;42.694;23.314;2022-10-31T05:58:16;95712.34;;;15.13;53.30
70127;BME280;57491;42.694;23.314;2022-10-31T06:00:43;95700.69;;;15.16;52.95
70127;BME280;57491;42.694;23.314;2022-10-31T06:03:12;95672.25;;;15.13;52.16
70127;BME280;57491;42.694;23.314;2022-10-31T06:05:39;95734.25;;;15.61;52.27
70127;BME280;57491;42.694;23.314;2022-10-31T06:08:06;95732.59;;;15.95;51.33
70127;BME280;57491;42.694;23.314;2022-10-31T06:10:33;95709.22;;;16.00;50.01
70127;BME280;57491;42.694;23.314;2022-10-31T06:13:00;95731.91;;;16.40;49.39
70127;BME280;57491;42.694;23.314;2022-10-31T06:15:27;95734.03;;;16.65;48.92
70127;BME280;57491;42.694;23.314;2022-10-31T06:17:58;95737.66;;;16.90;47.72
70127;BME280;57491;42.694;23.314;2022-10-31T06:20:27;95742.94;;;17.10;47.55
70127;BME280;57491;42.694;23.314;2022-10-31T06:22:54;95746.75;;;17.40;46.69
70127;BME280;57491;42.694;23.314;2022-10-31T06:25:21;95757.03;;;17.55;46.06
70127;BME280;57491;42.694;23.314;2022-10-31T06:27:48;95757.00;;;17.88;45.01
70127;BME280;57491;42.694;23.314;2022-10-31T06:30:15;95749.69;;;17.96;44.46
70127;BME280;57491;42.694;23.314;2022-10-31T06:32:42;95765.75;;;18.19;44.22
70127;BME280;57491;42.694;23.314;2022-10-31T06:35:10;95755.59;;;18.29;43.42
70127;BME280;57491;42.694;23.314;2022-10-31T06:37:38;95765.88;;;18.44;43.38
70127;BME280;57491;42.694;23.314;2022-10-31T06:40:06;95761.28;;;18.71;43.18
70127;BME280;57491;42.694;23.314;2022-10-31T06:42:33;95762.50;;;19.00;42.56
70127;BME280;57491;42.694;23.314;2022-10-31T06:45:00;95724.38;;;18.78;42.34
70127;BME280;57491;42.694;23.314;2022-10-31T06:47:27;95756.84;;;18.96;43.03
70127;BME280;57491;42.694;23.314;2022-10-31T06:49:54;95760.72;;;19.18;42.61
70127;BME280;57491;42.694;23.314;2022-10-31T06:52:21;95760.03;;;19.54;42.07
70127;BME280;57491;42.694;23.314;2022-10-31T06:54:50;95767.31;;;19.95;41.05
70127;BME280;57491;42.694;23.314;2022-10-31T06:57:17;95766.44;;;20.20;40.32
70127;BME280;57491;42.694;23.314;2022-10-31T06:59:44;95770.56;;;20.34;40.40
70127;BME280;57491;42.694;23.314;2022-10-31T07:02:12;95770.22;;;20.60;40.00
70127;BME280;57491;42.694;23.314;2022-10-31T07:04:39;95770.56;;;20.64;39.81
70127;BME280;57491;42.694;23.314;2022-10-31T07:07:06;95750.50;;;20.74;39.36
70127;BME280;57491;42.694;23.314;2022-10-31T07:09:33;95758.03;;;21.01;38.75
70127;BME280;57491;42.694;23.314;2022-10-31T07:12:01;95769.16;;;21.32;38.31
70127;BME280;57491;42.694;23.314;2022-10-31T07:14:28;95769.38;;;21.66;37.42
70127;BME280;57491;42.694;23.314;2022-10-31T07:16:55;95744.88;;;21.82;37.02
70127;BME280;57491;42.694;23.314;2022-10-31T07:19:23;95761.31;;;22.19;36.48
70127;BME280;57491;42.694;23.314;2022-10-31T07:21:50;95743.31;;;22.21;35.93
70127;BME280;57491;42.694;23.314;2022-10-31T07:24:17;95754.03;;;22.54;35.42
70127;BME280;57491;42.694;23.314;2022-10-31T07:26:45;95749.91;;;22.87;34.93
70127;BME280;57491;42.694;23.314;2022-10-31T07:29:14;95709.41;;;22.91;34.26
70127;BME280;57491;42.694;23.314;2022-10-31T07:31:41;95744.63;;;23.37;33.91
70127;BME280;57491;42.694;23.314;2022-10-31T07:34:09;95745.84;;;23.46;33.56
70127;BME280;57491;42.694;23.314;2022-10-31T07:36:36;95753.84;;;23.68;33.06
70127;BME280;57491;42.694;23.314;2022-10-31T07:39:04;95745.53;;;23.81;33.11
70127;BME280;57491;42.694;23.314;2022-10-31T07:41:31;95744.63;;;24.14;32.74
70127;BME280;57491;42.694;23.314;2022-10-31T07:43:58;95750.59;;;24.21;32.42
70127;BME280;57491;42.694;23.314;2022-10-31T07:46:27;95733.34;;;24.23;32.22
70127;BME280;57491;42.694;23.314;2022-10-31T07:48:54;95744.59;;;24.30;32.13
70127;BME280;57491;42.694;23.314;2022-10-31T07:51:21;95736.25;;;24.43;32.37
70127;BME280;57491;42.694;23.314;2022-10-31T07:53:49;95739.13;;;24.91;31.48
70127;BME280;57491;42.694;23.314;2022-10-31T07:56:16;95740.44;;;25.15;30.91
70127;BME280;57491;42.694;23.314;2022-10-31T07:58:43;95744.16;;;25.51;30.57
70127;BME280;57491;42.694;23.314;2022-10-31T08:01:10;95746.25;;;25.86;29.89
70127;BME280;57491;42.694;23.314;2022-10-31T08:03:39;95738.09;;;25.97;29.81
70127;BME280;57491;42.694;23.314;2022-10-31T08:06:06;95738.78;;;26.25;29.17
70127;BME280;57491;42.694;23.314;2022-10-31T08:08:33;95748.50;;;26.61;28.91
70127;BME280;57491;42.694;23.314;2022-10-31T08:11:00;95749.06;;;26.78;28.56
70127;BME280;57491;42.694;23.314;2022-10-31T08:13:27;95733.91;;;27.09;28.56
70127;BME280;57491;42.694;23.314;2022-10-31T08:15:54;95743.53;;;27.20;27.96
70127;BME280;57491;42.694;23.314;2022-10-31T08:18:21;95736.84;;;27.38;27.45
70127;BME280;57491;42.694;23.314;2022-10-31T08:20:50;95748.84;;;27.76;27.24
70127;BME280;57491;42.694;23.314;2022-10-31T08:23:19;95749.09;;;27.89;27.07
70127;BME280;57491;42.694;23.314;2022-10-31T08:25:46;95734.06;;;28.09;26.63
70127;BME280;57491;42.694;23.314;2022-10-31T08:28:14;95741.47;;;28.37;26.29
70127;BME280;57491;42.694;23.314;2022-10-31T08:30:41;95749.16;;;28.59;26.17
70127;BME280;57491;42.694;23.314;2022-10-31T08:33:11;95749.78;;;28.90;25.83
70127;BME280;57491;42.694;23.314;2022-10-31T08:35:38;95733.50;;;29.20;25.21
70127;BME280;57491;42.694;23.314;2022-10-31T08:38:08;95725.94;;;29.27;25.02
70127;BME280;57491;42.694;23.314;2022-10-31T08:40:36;95731.66;;;29.78;24.46
70127;BME280;57491;42.694;23.314;2022-10-31T08:43:05;95725.09;;;29.65;24.65
70127;BME280;57491;42.694;23.314;2022-10-31T08:45:33;95722.66;;;29.98;24.49
70127;BME280;57491;42.694;23.314;2022-10-31T08:48:02;95739.66;;;30.12;24.03
70127;BME280;57491;42.694;23.314;2022-10-31T08:50:32;95739.13;;;30.34;24.19
70127;BME280;57491;42.694;23.314;2022-10-31T08:53:00;95731.41;;;30.51;23.63
70127;BME280;57491;42.694;23.314;2022-10-31T08:55:29;95736.56;;;30.85;23.15
70127;BME280;57491;42.694;23.314;2022-10-31T08:57:57;95726.59;;;31.09;22.94
70127;BME280;57491;42.694;23.314;2022-10-31T09:00:25;95735.75;;;31.59;22.48
70127;BME280;57491;42.694;23.314;2022-10-31T09:02:56;95733.88;;;31.73;22.07
70127;BME280;57491;42.694;23.314;2022-10-31T09:05:23;95743.16;;;31.95;22.49
70127;BME280;57491;42.694;23.314;2022-10-31T09:07:52;95736.03;;;32.17;22.00
70127;BME280;57491;42.694;23.314;2022-10-31T09:10:21;95735.59;;;32.51;21.56
70127;BME280;57491;42.694;23.314;2022-10-31T09:12:56;95738.88;;;32.75;21.59
70127;BME280;57491;42.694;23.314;2022-10-31T09:15:23;95730.63;;;32.72;21.48
70127;BME280;57491;42.694;23.314;2022-10-31T09:17:50;95733.50;;;32.75;21.18
70127;BME280;57491;42.694;23.314;2022-10-31T09:20:17;95733.50;;;32.75;20.93
70127;BME280;57491;42.694;23.314;2022-10-31T09:22:44;95716.06;;;32.73;21.30
70127;BME280;57491;42.694;23.314;2022-10-31T09:25:11;95728.59;;;32.91;21.14
70127;BME280;57491;42.694;23.314;2022-10-31T09:27:37;95730.94;;;33.29;20.81
70127;BME280;57491;42.694;23.314;2022-10-31T09:30:07;95712.69;;;33.48;20.54
70127;BME280;57491;42.694;23.314;2022-10-31T09:32:35;95721.44;;;33.53;20.29
70127;BME280;57491;42.694;23.314;2022-10-31T09:35:01;95720.53;;;33.58;20.51
70127;BME280;57491;42.694;23.314;2022-10-31T09:37:28;95729.09;;;33.15;20.48
70127;BME280;57491;42.694;23.314;2022-10-31T09:39:56;95727.00;;;33.12;20.93
70127;BME280;57491;42.694;23.314;2022-10-31T09:42:26;95721.88;;;33.25;20.68
70127;BME280;57491;42.694;23.314;2022-10-31T09:45:02;95717.69;;;33.85;19.96
70127;BME280;57491;42.694;23.314;2022-10-31T09:47:43;95716.50;;;34.09;19.69
70127;BME280;57491;42.694;23.314;2022-10-31T09:50:18;95719.97;;;34.48;18.92
70127;BME280;57491;42.694;23.314;2022-10-31T09:52:53;95714.09;;;34.46;19.12
70127;BME280;57491;42.694;23.314;2022-10-31T09:55:30;95713.34;;;34.15;19.43
70127;BME280;57491;42.694;23.314;2022-10-31T09:57:59;95717.59;;;34.08;19.19
70127;BME280;57491;42.694;23.314;2022-10-31T10:00:27;95705.28;;;34.98;19.08
70127;BME280;57491;42.694;23.314;2022-10-31T10:03:11;95711.41;;;35.84;17.61
70127;BME280;57491;42.694;23.314;2022-10-31T10:05:45;95684.53;;;36.08;17.01
70127;BME280;57491;42.694;23.314;2022-10-31T10:08:19;95703.53;;;36.67;17.29
70127;BME280;57491;42.694;23.314;2022-10-31T10:10:49;95704.69;;;37.40;16.45
70127;BME280;57491;42.694;23.314;2022-10-31T10:13:39;95694.03;;;38.13;15.64
70127;BME280;57491;42.694;23.314;2022-10-31T10:16:19;95689.16;;;38.31;15.31
70127;BME280;57491;42.694;23.314;2022-10-31T10:19:04;95690.16;;;38.02;15.25
70127;BME280;57491;42.694;23.314;2022-10-31T10:21:42;95680.03;;;37.66;15.57
70127;BME280;57491;42.694;23.314;2022-10-31T10:24:29;95690.41;;;38.21;15.23
70127;BME280;57491;42.694;23.314;2022-10-31T10:27:06;95677.81;;;39.05;14.51
70127;BME280;57491;42.694;23.314;2022-10-31T10:29:41;95658.31;;;38.75;14.14
70127;BME280;57491;42.694;23.314;2022-10-31T10:32:23;95675.50;;;39.19;13.95
70127;BME280;57491;42.694;23.314;2022-10-31T10:34:56;95666.53;;;40.22;13.29
70127;BME280;57491;42.694;23.314;2022-10-31T10:37:29;95673.06;;;40.52;12.71
70127;BME280;57491;42.694;23.314;2022-10-31T10:40:06;95656.84;;;40.94;12.92
70127;BME280;57491;42.694;23.314;2022-10-31T10:42:35;95655.72;;;41.14;12.69
70127;BME280;57491;42.694;23.314;2022-10-31T10:45:21;95653.22;;;41.67;12.53
70127;BME280;57491;42.694;23.314;2022-10-31T10:50:53;95646.13;;;43.94;10.66
70127;BME280;57491;42.694;23.314;2022-10-31T10:53:33;95647.88;;;43.72;10.64
70127;BME280;57491;42.694;23.314;2022-10-31T10:56:11;95653.63;;;43.23;10.63
70127;BME280;57491;42.694;23.314;2022-10-31T10:58:42;95651.22;;;43.18;10.97
70127;BME280;57491;42.694;23.314;2022-10-31T11:01:12;95649.81;;;43.72;10.94
70127;BME280;57491;42.694;23.314;2022-10-31T11:03:40;95644.53;;;43.93;10.51
70127;BME280;57491;42.694;23.314;2022-10-31T11:06:18;95646.16;;;44.52;10.20
70127;BME280;57491;42.694;23.314;2022-10-31T11:08:48;95643.88;;;45.51;9.39
70127;BME280;57491;42.694;23.314;2022-10-31T11:11:23;95634.91;;;46.29;9.00
70127;BME280;57491;42.694;23.314;2022-10-31T11:13:59;95641.06;;;45.37;9.25
70127;BME280;57491;42.694;23.314;2022-10-31T11:16:30;95627.28;;;44.40;9.99
70127;BME280;57491;42.694;23.314;2022-10-31T11:19:13;95623.56;;;44.76;9.83
70127;BME280;57491;42.694;23.314;2022-10-31T11:21:43;95627.16;;;44.91;9.82
70127;BME280;57491;42.694;23.314;2022-10-31T11:24:16;95631.19;;;45.15;9.60
70127;BME280;57491;42.694;23.314;2022-10-31T11:26:44;95623.09;;;46.32;9.02
70127;BME280;57491;42.694;23.314;2022-10-31T11:29:15;95628.63;;;45.82;8.88
70127;BME280;57491;42.694;23.314;2022-10-31T11:31:43;95627.81;;;45.99;8.89
70127;BME280;57491;42.694;23.314;2022-10-31T11:34:16;95623.50;;;46.34;8.86
70127;BME280;57491;42.694;23.314;2022-10-31T11:36:47;95622.97;;;46.81;8.60
70127;BME280;57491;42.694;23.314;2022-10-31T11:39:17;95613.38;;;47.25;8.27
70127;BME280;57491;42.694;23.314;2022-10-31T11:41:46;95606.88;;;47.63;8.04
70127;BME280;57491;42.694;23.314;2022-10-31T11:44:19;95600.72;;;47.34;8.04
70127;BME280;57491;42.694;23.314;2022-10-31T11:46:49;95609.16;;;48.20;7.47
70127;BME280;57491;42.694;23.314;2022-10-31T11:49:20;95601.81;;;48.03;7.22
70127;BME280;57491;42.694;23.314;2022-10-31T11:51:54;95601.78;;;46.78;7.83
70127;BME280;57491;42.694;23.314;2022-10-31T11:54:25;95596.63;;;46.84;8.54
70127;BME280;57491;42.694;23.314;2022-10-31T11:56:54;95598.34;;;46.35;8.63
70127;BME280;57491;42.694;23.314;2022-10-31T11:59:25;95586.03;;;46.82;8.25
70127;BME280;57491;42.694;23.314;2022-10-31T12:01:54;95593.44;;;47.65;8.16
70127;BME280;57491;42.694;23.314;2022-10-31T12:04:37;95586.13;;;47.41;7.43
70127;BME280;57491;42.694;23.314;2022-10-31T12:07:07;95586.78;;;48.11;7.73
70127;BME280;57491;42.694;23.314;2022-10-31T12:09:35;95575.84;;;48.04;7.20
70127;BME280;57491;42.694;23.314;2022-10-31T12:12:16;95584.59;;;49.04;7.25
70127;BME280;57491;42.694;23.314;2022-10-31T12:14:56;95584.56;;;47.95;7.44
70127;BME280;57491;42.694;23.314;2022-10-31T12:17:34;95579.13;;;46.25;8.29
70127;BME280;57491;42.694;23.314;2022-10-31T12:20:08;95584.63;;;45.64;8.92
70127;BME280;57491;42.694;23.314;2022-10-31T12:22:45;95578.19;;;46.70;8.20
70127;BME280;57491;42.694;23.314;2022-10-31T12:25:26;95580.19;;;46.66;8.12
70127;BME280;57491;42.694;23.314;2022-10-31T12:28:19;95575.88;;;46.65;8.78
70127;BME280;57491;42.694;23.314;2022-10-31T12:31:01;95576.88;;;47.07;8.46
70127;BME280;57491;42.694;23.314;2022-10-31T12:33:41;95578.78;;;47.17;7.85
70127;BME280;57491;42.694;23.314;2022-10-31T12:36:19;95572.16;;;47.73;7.56
70127;BME280;57491;42.694;23.314;2022-10-31T12:38:59;95574.16;;;47.65;7.62
70127;BME280;57491;42.694;23.314;2022-10-31T12:41:45;95573.53;;;47.95;7.91
70127;BME280;57491;42.694;23.314;2022-10-31T12:44:32;95558.38;;;47.69;7.87
70127;BME280;57491;42.694;23.314;2022-10-31T12:47:21;95576.81;;;47.17;8.29
70127;BME280;57491;42.694;23.314;2022-10-31T12:49:59;95569.75;;;47.13;8.35
70127;BME280;57491;42.694;23.314;2022-10-31T12:52:35;95573.41;;;46.85;8.47
70127;BME280;57491;42.694;23.314;2022-10-31T12:55:16;95572.19;;;47.00;8.04
70127;BME280;57491;42.694;23.314;2022-10-31T12:57:50;95565.50;;;47.05;8.02
70127;BME280;57491;42.694;23.314;2022-10-31T13:00:18;95571.69;;;45.61;8.77
70127;BME280;57491;42.694;23.314;2022-10-31T13:02:51;95581.41;;;45.30;9.17
70127;BME280;57491;42.694;23.314;2022-10-31T13:05:26;95569.91;;;44.82;9.07
70127;BME280;57491;42.694;23.314;2022-10-31T13:07:58;95561.81;;;44.31;9.46
70127;BME280;57491;42.694;23.314;2022-10-31T13:10:31;95571.50;;;44.87;9.27
70127;BME280;57491;42.694;23.314;2022-10-31T13:13:06;95569.41;;;43.97;9.77
70127;BME280;57491;42.694;23.314;2022-10-31T13:15:44;95556.75;;;43.35;10.24
70127;BME280;57491;42.694;23.314;2022-10-31T13:18:21;95565.31;;;43.33;10.30
70127;BME280;57491;42.694;23.314;2022-10-31T13:20:50;95561.47;;;42.67;10.87